»·PEaware :: BAW1 KPDX-KLAX

BAW1 :: KPDX-KLAX

FLIGHT INFORMATION

Flight Status: Arrived
Operator:
British Airways
More flights by this operator :: More flights under this callsign
Pilot: Matthew M. (8235)
Aircraft: AÉROSPATIALE-BAC CONCORDE
(CONC)
More flights by this aircraft type
Origin: KPDX Portland Intl
United States
Destination: KLAX Los Angeles Intl
United States
More flights between these airports :: More routes between these airports
Route: PTLD1 ONP LINUZ/M200F500B600 ALCOA BEBOP SNAXX SXC LEENA7
File this flight plan on PilotEdge
Remarks:
Altitude:
(Current/Filed)
28,000ft
Speed:
(Current/Filed)
400kts
Departed: 08-Aug-20 03:33 PM
Arrived: 08-Aug-20 05:21 PM
Distance/Time
Traveled:
725nm/1:48
Distance/Time
To Go:
Arrived

Flight Plot

Page will automatically refresh every two minutes.

Flight plan parsing failed; only flown route is shown


Map Options




Map Legend


Flown Route
Filed Route
Departure Airport
Arrival Airport
Navaid (VOR, NDB)
Fix

Horizontal Profiles

Position Reports

Time Latitude Longitude Heading Altitude Ground
Speed
08-Aug-20 15:02 45.589858 -122.600197 85 29ft 0kts
08-Aug-20 15:03 45.589858 -122.600197 85 29ft 0kts
08-Aug-20 15:04 45.589858 -122.600197 85 29ft 0kts
08-Aug-20 15:05 45.589858 -122.600197 85 29ft 0kts
08-Aug-20 15:07 45.589858 -122.600197 85 29ft 0kts
08-Aug-20 15:08 45.589858 -122.600197 85 29ft 0kts
08-Aug-20 15:09 45.589858 -122.600197 85 29ft 0kts
08-Aug-20 15:10 45.589858 -122.600197 85 29ft 0kts
08-Aug-20 15:11 45.589858 -122.600197 85 29ft 0kts
08-Aug-20 15:12 45.589858 -122.600197 85 29ft 0kts
08-Aug-20 15:13 45.589858 -122.600197 85 29ft 0kts
08-Aug-20 15:14 45.589858 -122.600197 85 29ft 0kts
08-Aug-20 15:15 45.589858 -122.600197 85 29ft 0kts
08-Aug-20 15:16 45.589858 -122.600197 85 29ft 0kts
08-Aug-20 15:17 45.589858 -122.600197 85 29ft 0kts
08-Aug-20 15:18 45.589858 -122.600197 85 29ft 0kts
08-Aug-20 15:19 45.589858 -122.600197 85 29ft 0kts
08-Aug-20 15:20 45.589858 -122.600197 85 29ft 0kts
08-Aug-20 15:21 45.589858 -122.600197 85 29ft 0kts
08-Aug-20 15:22 45.589794 -122.600548 62 29ft 2kts
08-Aug-20 15:23 45.589339 -122.601054 20 29ft 0kts
08-Aug-20 15:24 45.589326 -122.601061 20 29ft 0kts
08-Aug-20 15:24 45.589326 -122.601061 20 29ft 0kts
08-Aug-20 15:26 45.589326 -122.601061 20 29ft 0kts
08-Aug-20 15:26 45.590017 -122.603707 255 29ft 14kts
08-Aug-20 15:27 45.593288 -122.611626 304 29ft 27kts
08-Aug-20 15:29 45.596056 -122.620536 214 29ft 0kts
08-Aug-20 15:29 45.596056 -122.620535 214 29ft 0kts
08-Aug-20 15:30 45.596056 -122.620535 214 29ft 0kts
08-Aug-20 15:32 45.594907 -122.620804 121 29ft 0kts
08-Aug-20 15:32 45.591868 -122.613053 118 29ft 146kts
08-Aug-20 15:33 45.554076 -122.518390 118 3833ft 356kts
08-Aug-20 15:34 45.509553 -122.414200 121 5835ft 301kts
08-Aug-20 15:35 45.456070 -122.328935 171 5740ft 346kts
08-Aug-20 15:36 45.369537 -122.419492 239 9899ft 409kts
08-Aug-20 15:37 45.307135 -122.555377 238 11388ft 408kts
08-Aug-20 15:38 45.244761 -122.687530 237 15137ft 431kts
08-Aug-20 15:39 45.175645 -122.832034 238 18620ft 473kts
08-Aug-20 15:40 45.102511 -122.984800 239 26364ft 494kts
08-Aug-20 15:41 45.023550 -123.148990 238 27795ft 539kts
08-Aug-20 15:42 44.934757 -123.332080 238 28133ft 575kts
08-Aug-20 15:43 44.852185 -123.501396 238 28206ft 574kts
08-Aug-20 15:44 44.766988 -123.675156 237 28219ft 572kts
08-Aug-20 15:45 44.671554 -123.868822 237 28287ft 570kts
08-Aug-20 15:46 44.576298 -124.053126 224 28290ft 575kts
08-Aug-20 15:47 44.441317 -124.179667 214 28290ft 580kts
08-Aug-20 15:48 44.304063 -124.300271 214 29848ft 597kts
08-Aug-20 15:49 44.154415 -124.431009 214 35604ft 685kts
08-Aug-20 15:50 43.982243 -124.580362 214 38625ft 782kts
08-Aug-20 15:51 43.786854 -124.748633 213 42923ft 954kts
08-Aug-20 15:52 43.543418 -124.956345 213 48498ft 1078kts
08-Aug-20 15:53 43.286986 -125.173050 212 51079ft 1147kts
08-Aug-20 15:54 43.015496 -125.400129 212 52963ft 1157kts
08-Aug-20 15:55 42.775516 -125.598898 212 54245ft 1168kts
08-Aug-20 15:56 42.511176 -125.815721 211 55299ft 1168kts
08-Aug-20 15:57 42.229959 -126.044064 211 56147ft 1168kts
08-Aug-20 15:58 41.944570 -126.273323 211 56793ft 1168kts
08-Aug-20 15:59 41.650693 -126.463495 202 57247ft 1169kts
08-Aug-20 16:00 41.330651 -126.516413 169 57593ft 1169kts
08-Aug-20 16:01 41.030995 -126.363870 162 57888ft 1164kts
08-Aug-20 16:02 40.718633 -126.295979 172 58113ft 1163kts
08-Aug-20 16:03 40.397327 -126.242801 172 58247ft 1163kts
08-Aug-20 16:04 40.076176 -126.190102 172 58361ft 1163kts
08-Aug-20 16:05 39.757690 -126.138335 172 58448ft 1163kts
08-Aug-20 16:06 39.437676 -126.086812 172 58514ft 1163kts
08-Aug-20 16:07 39.117933 -126.035805 172 58579ft 1163kts
08-Aug-20 16:08 38.797754 -125.985217 171 58621ft 1167kts
08-Aug-20 16:09 38.476881 -125.934927 171 58672ft 1167kts
08-Aug-20 16:10 38.154248 -125.884842 171 58742ft 1167kts
08-Aug-20 16:11 37.837955 -125.828095 164 58760ft 1165kts
08-Aug-20 16:12 37.559930 -125.641692 132 58803ft 1148kts
08-Aug-20 16:13 37.373967 -125.335944 135 58843ft 1148kts
08-Aug-20 16:14 37.116067 -125.099432 144 58903ft 1154kts
08-Aug-20 16:15 36.875018 -124.853694 123 58971ft 1146kts
08-Aug-20 16:16 36.690768 -124.558465 128 59002ft 1148kts
08-Aug-20 16:17 36.517065 -124.299477 129 59012ft 1148kts
08-Aug-20 16:18 36.394478 -124.117954 129 59027ft 1147kts
08-Aug-20 16:19 36.215285 -123.854380 129 59059ft 1148kts
08-Aug-20 16:20 36.005686 -123.548690 129 59093ft 1148kts
08-Aug-20 16:21 35.798790 -123.249624 130 59122ft 1148kts
08-Aug-20 16:22 35.582701 -122.939916 130 59156ft 1157kts
08-Aug-20 16:23 35.372988 -122.642284 130 59188ft 1154kts
08-Aug-20 16:24 35.163926 -122.347984 131 59228ft 1154kts
08-Aug-20 16:25 35.006299 -122.127717 131 59249ft 1158kts
08-Aug-20 16:26 34.793563 -121.832742 132 59287ft 1160kts
08-Aug-20 16:27 34.576608 -121.534457 132 59338ft 1161kts
08-Aug-20 16:28 34.361569 -121.241220 133 58264ft 1151kts
08-Aug-20 16:29 34.173820 -120.991364 134 55642ft 1025kts
08-Aug-20 16:30 34.044576 -120.751477 113 52056ft 875kts
08-Aug-20 16:31 33.982781 -120.522082 117 49464ft 771kts
08-Aug-20 16:32 33.911261 -120.312376 112 45167ft 713kts
08-Aug-20 16:33 33.871802 -120.174450 111 41502ft 701kts
08-Aug-20 16:34 33.822674 -119.985095 109 38084ft 661kts
08-Aug-20 16:35 33.769925 -119.775847 107 34394ft 637kts
08-Aug-20 16:36 33.719972 -119.544221 106 31085ft 586kts
08-Aug-20 16:37 33.676533 -119.340369 107 26584ft 574kts
08-Aug-20 16:38 33.634867 -119.158100 108 22037ft 556kts
08-Aug-20 16:39 33.591724 -118.976868 107 17819ft 521kts
08-Aug-20 16:40 33.547506 -118.812853 109 14789ft 474kts
08-Aug-20 16:41 33.506800 -118.667233 109 12354ft 425kts
08-Aug-20 16:42 33.467185 -118.527497 109 12048ft 420kts
08-Aug-20 16:43 33.428872 -118.392299 109 11950ft 421kts
08-Aug-20 16:44 33.399742 -118.259479 104 10930ft 404kts
08-Aug-20 16:45 33.438113 -118.166756 13 9379ft 312kts
08-Aug-20 16:46 33.515646 -118.146020 11 6907ft 289kts
08-Aug-20 16:47 33.591447 -118.124728 13 6997ft 293kts
08-Aug-20 16:48 33.664984 -118.102236 13 7153ft 293kts
08-Aug-20 16:49 33.729413 -118.080709 16 6989ft 291kts
08-Aug-20 16:50 33.794877 -118.059752 11 6537ft 294kts
08-Aug-20 16:51 33.862928 -118.041555 11 4941ft 257kts
08-Aug-20 16:52 33.922606 -118.026206 11 4974ft 253kts
08-Aug-20 16:53 33.974690 -118.050934 269 5058ft 244kts
08-Aug-20 16:54 33.964941 -118.122038 259 4408ft 221kts
08-Aug-20 16:55 33.957389 -118.186990 261 3355ft 204kts
08-Aug-20 16:56 33.950146 -118.256716 262 2214ft 199kts
08-Aug-20 16:57 33.943156 -118.325731 264 1077ft 193kts
08-Aug-20 16:58 33.936743 -118.388735 263 125ft 133kts
08-Aug-20 16:59 33.927951 -118.481174 259 2742ft 349kts
08-Aug-20 17:00 33.895115 -118.582836 247 1950ft 261kts
08-Aug-20 17:01 33.834156 -118.607851 162 3621ft 266kts
08-Aug-20 17:02 33.763384 -118.575797 162 5056ft 270kts
08-Aug-20 17:03 33.691484 -118.543001 162 5000ft 274kts
08-Aug-20 17:04 33.643026 -118.475393 102 5006ft 280kts
08-Aug-20 17:05 33.629641 -118.385466 101 4995ft 279kts
08-Aug-20 17:06 33.625180 -118.297984 58 5047ft 291kts
08-Aug-20 17:07 33.664795 -118.234969 51 4987ft 283kts
08-Aug-20 17:08 33.706180 -118.171534 51 4979ft 285kts
08-Aug-20 17:10 33.750659 -118.103076 51 4994ft 283kts
08-Aug-20 17:11 33.789339 -118.043411 51 4991ft 283kts
08-Aug-20 17:12 33.831002 -117.980291 51 4982ft 282kts
08-Aug-20 17:13 33.888751 -117.965972 351 4969ft 280kts
08-Aug-20 17:14 33.950264 -117.985229 307 5029ft 281kts
08-Aug-20 17:15 33.966182 -118.060478 265 4841ft 274kts
08-Aug-20 17:16 33.961379 -118.136978 263 4142ft 251kts
08-Aug-20 17:17 33.955431 -118.202762 262 3023ft 187kts
08-Aug-20 17:18 33.949328 -118.264500 263 2079ft 191kts
08-Aug-20 17:19 33.943454 -118.322870 264 1121ft 183kts
08-Aug-20 17:20 33.937104 -118.385224 264 120ft 149kts
08-Aug-20 17:21 33.935858 -118.406091 287 117ft 0kts
08-Aug-20 17:22 33.936016 -118.408169 284 117ft 10kts
08-Aug-20 17:23 33.937668 -118.409088 354 117ft 0kts
08-Aug-20 17:24 33.937668 -118.409088 354 117ft 0kts

Navigation Log

Ident Type
Flight plan parsing failed, navigation log unavailable